Time;durP1;ratioP1;P1;durP2;ratioP2;P2;SDS_P1;SDS_P2;PMS_P1;PMS_P2;Temp;Humidity;BMP_temperature;BMP_pressure;BME280_temperature;BME280_humidity;BME280_pressure;Samples;Min_cycle;Max_cycle;Signal;HPM_P1;HPM_P2
2022/06/19 00:00:38;;;;;;;4.60;1.40;;;15.00;57.50;;;;;;5038258;28;20033;-74
2022/06/19 00:03:07;;;;;;;4.03;1.67;;;15.00;57.50;;;;;;5031539;28;20037;-74
2022/06/19 00:05:33;;;;;;;5.45;1.67;;;15.00;57.50;;;;;;5035919;28;20033;-75
2022/06/19 00:08:00;;;;;;;5.32;1.42;;;14.90;57.40;;;;;;5016312;28;20045;-75
2022/06/19 00:10:26;;;;;;;6.80;1.27;;;15.00;57.60;;;;;;5032468;28;20464;-73
2022/06/19 00:12:52;;;;;;;5.70;1.75;;;14.90;57.40;;;;;;5033457;28;20124;-75
2022/06/19 00:15:18;;;;;;;5.85;1.48;;;14.90;57.50;;;;;;5036842;28;20031;-74
2022/06/19 00:17:44;;;;;;;4.30;1.30;;;14.90;57.50;;;;;;5037417;28;20033;-74
2022/06/19 00:20:10;;;;;;;5.07;1.40;;;14.90;57.50;;;;;;5034598;28;20288;-74
2022/06/19 00:22:37;;;;;;;5.15;2.00;;;14.90;57.60;;;;;;5029711;28;20149;-74
2022/06/19 00:25:04;;;;;;;3.38;1.42;;;14.80;57.40;;;;;;5023187;28;20362;-75
2022/06/19 00:27:31;;;;;;;8.02;1.50;;;14.80;57.40;;;;;;5029952;28;20299;-74
2022/06/19 00:29:59;;;;;;;3.55;1.23;;;14.80;57.50;;;;;;5038122;28;20025;-74
2022/06/19 00:32:26;;;;;;;2.85;1.00;;;14.80;57.50;;;;;;5000623;28;20025;-73
2022/06/19 00:34:52;;;;;;;5.30;1.83;;;14.70;57.30;;;;;;5033958;28;20025;-73
2022/06/19 00:37:18;;;;;;;3.97;1.38;;;14.70;57.40;;;;;;5031785;28;20043;-74
2022/06/19 00:39:45;;;;;;;3.75;1.38;;;14.70;57.50;;;;;;5034463;28;20318;-74
2022/06/19 00:42:14;;;;;;;4.43;1.50;;;14.70;57.50;;;;;;5035200;28;20021;-74
2022/06/19 00:44:41;;;;;;;4.15;1.27;;;14.60;57.40;;;;;;5031785;28;20029;-74
2022/06/19 00:47:26;;;;;;;3.42;1.23;;;14.60;57.40;;;;;;5035770;28;20067;-74
2022/06/19 00:50:03;;;;;;;5.65;1.88;;;14.60;57.50;;;;;;5033569;28;20060;-74
2022/06/19 00:52:36;;;;;;;8.88;2.20;;;14.50;57.40;;;;;;5031728;28;20080;-74
2022/06/19 00:55:32;;;;;;;3.30;1.35;;;14.50;57.40;;;;;;5033478;28;20021;-73
2022/06/19 00:58:07;;;;;;;7.20;1.50;;;14.50;57.50;;;;;;5005063;28;20063;-73
2022/06/19 01:00:34;;;;;;;5.07;1.55;;;14.50;57.50;;;;;;5031701;28;20037;-73
2022/06/19 01:03:46;;;;;;;8.38;2.03;;;14.50;57.50;;;;;;5035186;28;20218;-74
2022/06/19 01:06:12;;;;;;;5.28;1.95;;;14.40;57.40;;;;;;5026865;28;20497;-74
2022/06/19 01:08:38;;;;;;;7.50;1.70;;;14.40;57.40;;;;;;5015303;28;20107;-73
2022/06/19 01:11:05;;;;;;;4.18;1.35;;;14.40;57.40;;;;;;5015971;28;20068;-74
2022/06/19 01:13:33;;;;;;;4.05;1.83;;;14.40;57.50;;;;;;5016834;28;20025;-74
2022/06/19 01:16:01;;;;;;;5.97;2.10;;;14.30;57.40;;;;;;5034402;28;20198;-73
2022/06/19 01:18:29;;;;;;;3.70;1.35;;;14.30;57.50;;;;;;5035503;28;20025;-73
2022/06/19 01:21:01;;;;;;;7.50;2.10;;;14.30;57.50;;;;;;5030180;28;20034;-73
2022/06/19 01:23:44;;;;;;;7.30;1.52;;;14.30;57.60;;;;;;5028516;28;20025;-74
2022/06/19 01:26:13;;;;;;;4.47;1.70;;;14.20;57.50;;;;;;5032478;28;20028;-73
2022/06/19 01:28:54;;;;;;;5.45;1.50;;;14.20;57.40;;;;;;5016559;28;20112;-74
2022/06/19 01:31:30;;;;;;;6.22;1.95;;;14.20;57.50;;;;;;5031273;28;20443;-76
2022/06/19 01:37:01;;;;;;;5.05;1.25;;;14.20;57.60;;;;;;5032297;28;20156;-74
2022/06/19 01:39:30;;;;;;;6.90;2.65;;;14.10;57.50;;;;;;5032169;28;20405;-75
2022/06/19 01:41:57;;;;;;;5.35;2.10;;;14.10;57.50;;;;;;5037173;28;20120;-75
2022/06/19 01:44:23;;;;;;;3.55;1.30;;;14.10;57.60;;;;;;5034011;28;20025;-74
2022/06/19 01:46:49;;;;;;;4.07;2.28;;;14.00;57.50;;;;;;5033985;28;20278;-73
2022/06/19 01:49:15;;;;;;;4.57;1.42;;;14.00;57.50;;;;;;5037605;28;20060;-73
2022/06/19 01:51:41;;;;;;;9.18;3.25;;;14.00;57.50;;;;;;5029429;28;20060;-73
2022/06/19 01:54:23;;;;;;;5.35;1.63;;;14.00;57.60;;;;;;5037048;28;20028;-74
2022/06/19 01:56:52;;;;;;;4.00;1.20;;;13.90;57.50;;;;;;5025131;28;20033;-74
2022/06/19 01:59:18;;;;;;;4.30;1.33;;;13.90;57.50;;;;;;5039791;28;20052;-73
2022/06/19 02:01:45;;;;;;;4.57;1.15;;;13.90;57.50;;;;;;5031224;28;20477;-73
2022/06/19 02:04:11;;;;;;;5.15;1.23;;;13.90;58.10;;;;;;5038512;28;20112;-74
2022/06/19 02:06:44;;;;;;;6.18;1.20;;;13.80;57.40;;;;;;5035853;28;20472;-73
2022/06/19 02:09:17;;;;;;;3.35;1.30;;;13.80;57.50;;;;;;5038547;28;20029;-74
2022/06/19 02:11:44;;;;;;;4.82;2.30;;;13.80;57.30;;;;;;5040526;28;20025;-73
2022/06/19 02:14:12;;;;;;;4.10;1.20;;;13.80;57.50;;;;;;5037423;28;20377;-74
2022/06/19 02:16:41;;;;;;;4.25;1.80;;;13.80;57.50;;;;;;5041417;28;21329;-74
2022/06/19 02:19:08;;;;;;;4.00;1.85;;;13.80;57.60;;;;;;5040877;28;20114;-74
2022/06/19 02:21:47;;;;;;;4.72;1.20;;;13.70;57.40;;;;;;5039952;28;20579;-73
2022/06/19 02:24:16;;;;;;;3.80;1.27;;;13.70;57.60;;;;;;5042021;28;20083;-74
2022/06/19 02:26:43;;;;;;;5.35;1.70;;;13.70;57.50;;;;;;5034698;28;20033;-74
2022/06/19 02:29:12;;;;;;;5.93;1.40;;;13.70;57.60;;;;;;5041281;28;20373;-74
2022/06/19 02:31:41;;;;;;;4.47;1.33;;;13.60;57.40;;;;;;5039956;28;20014;-73
2022/06/19 02:34:21;;;;;;;3.60;1.23;;;13.60;57.50;;;;;;5041790;28;20271;-74
2022/06/19 02:36:55;;;;;;;7.03;1.52;;;13.60;57.60;;;;;;5038021;28;20036;-75
2022/06/19 02:39:39;;;;;;;3.78;1.10;;;13.60;57.60;;;;;;5040635;28;20041;-75
2022/06/19 02:42:28;;;;;;;5.45;1.17;;;13.60;57.70;;;;;;5043617;28;20217;-76
2022/06/19 02:45:01;;;;;;;5.07;1.20;;;13.50;57.40;;;;;;5053977;28;20036;-73
2022/06/19 02:47:28;;;;;;;;;;;13.50;57.50;;;;;;5025374;28;20149;-75
2022/06/19 02:49:54;;;;;;;3.50;0.70;;;13.50;57.40;;;;;;5053257;28;19999;-77
2022/06/19 02:52:20;;;;;;;6.55;1.23;;;13.50;57.30;;;;;;5061542;28;20096;-73
2022/06/19 02:54:47;;;;;;;2.72;0.90;;;13.50;57.40;;;;;;5061739;28;20040;-74
2022/06/19 02:57:14;;;;;;;5.80;1.30;;;13.50;57.60;;;;;;5052786;28;20310;-75
2022/06/19 02:59:40;;;;;;;4.45;1.55;;;13.50;57.60;;;;;;5058240;28;20097;-74
2022/06/19 03:02:07;;;;;;;4.40;1.02;;;13.40;57.40;;;;;;5026085;28;20187;-74
2022/06/19 03:04:43;;;;;;;4.28;1.23;;;13.50;57.60;;;;;;5025775;28;20484;-75
2022/06/19 03:07:09;;;;;;;3.20;1.40;;;13.40;57.60;;;;;;5021368;28;20037;-74
2022/06/19 03:09:35;;;;;;;4.53;1.42;;;13.40;57.50;;;;;;5036989;28;20029;-75
2022/06/19 03:12:01;;;;;;;8.23;1.67;;;13.40;57.60;;;;;;5040638;28;20021;-75
2022/06/19 03:14:27;;;;;;;4.47;1.23;;;13.40;57.70;;;;;;5043558;28;20383;-73
2022/06/19 03:16:54;;;;;;;5.13;1.65;;;13.40;57.70;;;;;;5043311;28;20452;-74
2022/06/19 03:19:21;;;;;;;5.93;1.75;;;13.40;57.80;;;;;;5034823;28;20102;-74
2022/06/19 03:21:49;;;;;;;4.57;1.65;;;13.30;57.60;;;;;;5022491;28;20197;-73
2022/06/19 03:24:15;;;;;;;3.55;1.42;;;13.40;57.80;;;;;;5021018;28;20081;-74
2022/06/19 03:26:41;;;;;;;5.70;1.50;;;13.30;57.70;;;;;;5039021;28;20144;-74
2022/06/19 03:29:07;;;;;;;6.30;1.63;;;13.30;58.30;;;;;;5030573;28;20033;-74
2022/06/19 03:31:33;;;;;;;4.68;1.58;;;13.30;57.70;;;;;;5039451;28;20040;-74
2022/06/19 03:33:59;;;;;;;3.22;1.00;;;13.30;57.80;;;;;;5042030;28;20116;-74
2022/06/19 03:36:25;;;;;;;4.55;1.63;;;13.30;57.80;;;;;;5023168;28;20500;-74
2022/06/19 03:38:51;;;;;;;3.45;1.27;;;13.30;57.90;;;;;;5041807;28;20895;-73
2022/06/19 03:41:17;;;;;;;5.88;0.95;;;13.20;57.70;;;;;;5042678;28;20029;-74
2022/06/19 03:43:43;;;;;;;5.53;1.20;;;13.20;57.70;;;;;;5039071;28;20026;-74
2022/06/19 03:46:16;;;;;;;2.40;0.88;;;13.20;57.70;;;;;;5035548;28;20034;-74
2022/06/19 03:48:48;;;;;;;2.43;1.03;;;13.20;57.80;;;;;;5038453;28;20404;-74
2022/06/19 03:51:16;;;;;;;3.40;1.58;;;13.20;57.90;;;;;;5041558;28;20108;-74
2022/06/19 03:53:43;;;;;;;2.63;0.93;;;13.10;57.70;;;;;;5037261;28;20556;-74
2022/06/19 03:56:14;;;;;;;2.90;1.00;;;13.10;57.70;;;;;;5036814;28;20385;-73
2022/06/19 03:58:46;;;;;;;3.58;1.10;;;13.10;57.70;;;;;;5017587;28;20064;-73
2022/06/19 04:01:21;;;;;;;3.03;0.90;;;13.10;57.70;;;;;;5027401;28;20021;-74
2022/06/19 04:03:49;;;;;;;4.78;0.90;;;13.10;57.70;;;;;;5035832;28;20039;-74
2022/06/19 04:06:17;;;;;;;2.58;0.90;;;13.10;57.70;;;;;;5015851;28;20053;-74
2022/06/19 04:08:46;;;;;;;3.53;0.95;;;13.10;57.80;;;;;;5036993;28;20390;-75
2022/06/19 04:11:16;;;;;;;3.30;0.98;;;13.10;57.80;;;;;;5029058;28;20521;-74
2022/06/19 04:13:43;;;;;;;4.32;1.63;;;13.10;57.80;;;;;;5036574;28;20464;-74
2022/06/19 04:16:20;;;;;;;2.35;1.10;;;13.10;57.80;;;;;;5034762;28;20048;-74
2022/06/19 04:18:47;;;;;;;3.33;1.05;;;13.10;57.80;;;;;;5040016;28;20474;-73
2022/06/19 04:21:15;;;;;;;5.40;2.08;;;13.10;57.80;;;;;;5042161;28;20029;-73
2022/06/19 04:23:45;;;;;;;2.78;0.93;;;13.00;57.60;;;;;;5033097;28;20473;-74
2022/06/19 04:26:14;;;;;;;3.88;1.00;;;13.10;57.80;;;;;;5022106;28;20017;-74
2022/06/19 04:28:41;;;;;;;4.40;0.90;;;13.10;57.80;;;;;;5043902;28;20395;-74
2022/06/19 04:31:07;;;;;;;6.18;1.58;;;13.10;57.80;;;;;;5016446;28;20471;-74
2022/06/19 04:33:38;;;;;;;3.00;1.63;;;13.00;57.70;;;;;;5043864;28;20090;-73
2022/06/19 04:36:06;;;;;;;2.70;0.95;;;13.00;57.70;;;;;;5038177;28;20064;-74
2022/06/19 04:38:33;;;;;;;1.75;0.88;;;13.00;57.70;;;;;;5039251;28;20029;-74
2022/06/19 04:40:59;;;;;;;3.47;1.10;;;13.00;57.80;;;;;;5042176;28;20396;-74
2022/06/19 04:43:25;;;;;;;4.57;0.93;;;13.00;57.80;;;;;;5018078;28;20031;-74
2022/06/19 04:45:51;;;;;;;2.25;0.80;;;13.10;57.90;;;;;;5042229;28;20032;-74
2022/06/19 04:48:17;;;;;;;3.28;1.10;;;13.10;57.80;;;;;;5004930;28;20451;-75
2022/06/19 04:50:43;;;;;;;1.45;1.00;;;13.10;57.80;;;;;;5036485;28;20554;-75
2022/06/19 04:53:09;;;;;;;3.63;1.25;;;13.20;57.90;;;;;;5035347;28;20028;-75
2022/06/19 04:55:35;;;;;;;4.75;1.60;;;13.20;57.90;;;;;;5042448;28;20155;-74
2022/06/19 04:58:03;;;;;;;3.47;0.80;;;13.20;57.80;;;;;;5038862;28;20472;-74
2022/06/19 05:00:30;;;;;;;3.17;1.08;;;13.20;57.80;;;;;;5039781;28;20613;-74
2022/06/19 05:02:56;;;;;;;4.25;1.73;;;13.30;57.90;;;;;;5036081;28;20024;-74
2022/06/19 05:05:23;;;;;;;4.45;1.08;;;13.30;57.90;;;;;;5040329;28;20044;-73
2022/06/19 05:07:49;;;;;;;2.08;0.80;;;13.30;57.80;;;;;;5040405;28;20408;-73
2022/06/19 05:10:15;;;;;;;2.60;1.42;;;13.40;58.00;;;;;;5033594;28;20033;-73
2022/06/19 05:12:42;;;;;;;4.13;1.48;;;13.40;57.90;;;;;;5038701;28;20037;-74
2022/06/19 05:15:10;;;;;;;2.67;1.05;;;13.50;58.00;;;;;;5033631;28;20029;-73
2022/06/19 05:17:36;;;;;;;4.15;1.45;;;13.50;58.00;;;;;;5033084;28;20024;-74
2022/06/19 05:20:04;;;;;;;4.25;1.13;;;13.50;57.90;;;;;;5030027;28;20056;-75
2022/06/19 05:22:31;;;;;;;2.65;0.90;;;13.60;58.10;;;;;;5031072;28;20196;-74
2022/06/19 05:24:57;;;;;;;3.03;0.90;;;13.60;58.00;;;;;;5015059;28;20060;-74
2022/06/19 05:27:27;;;;;;;3.92;1.10;;;13.70;58.10;;;;;;5038554;28;20017;-75
2022/06/19 05:29:54;;;;;;;2.47;0.90;;;13.70;58.00;;;;;;5033491;28;20097;-76
2022/06/19 05:32:19;;;;;;;2.80;1.00;;;13.80;58.20;;;;;;5008161;28;20025;-75
2022/06/19 05:34:45;;;;;;;4.43;1.23;;;13.90;58.20;;;;;;5035063;28;20028;-77
2022/06/19 05:37:11;;;;;;;4.28;0.95;;;13.90;58.10;;;;;;5021297;28;20033;-75
2022/06/19 05:39:37;;;;;;;4.20;1.20;;;14.00;58.10;;;;;;5032819;28;20035;-77
2022/06/19 05:42:04;;;;;;;3.85;0.90;;;14.10;58.20;;;;;;5019722;28;20029;-76
2022/06/19 05:44:30;;;;;;;4.00;1.40;;;14.20;58.30;;;;;;5034555;28;20403;-74
2022/06/19 05:46:56;;;;;;;2.42;1.13;;;14.30;58.30;;;;;;5031213;28;20037;-73
2022/06/19 05:49:22;;;;;;;2.15;0.80;;;14.40;58.30;;;;;;5030206;28;20127;-75
2022/06/19 05:51:48;;;;;;;3.75;0.93;;;14.50;58.30;;;;;;5036681;28;20049;-77
2022/06/19 05:54:14;;;;;;;2.78;1.20;;;14.60;58.40;;;;;;5002497;28;20051;-76
2022/06/19 05:56:40;;;;;;;3.55;1.00;;;14.70;58.40;;;;;;5035179;28;20415;-76
2022/06/19 05:59:06;;;;;;;2.67;1.05;;;14.80;58.50;;;;;;5034499;28;20107;-77
2022/06/19 06:01:32;;;;;;;4.32;1.05;;;14.80;58.30;;;;;;5034913;28;20033;-75
2022/06/19 06:03:59;;;;;;;2.72;1.40;;;14.90;58.50;;;;;;5027651;28;20588;-75
2022/06/19 06:06:29;;;;;;;4.03;1.40;;;15.00;59.10;;;;;;5017629;28;20037;-77
2022/06/19 06:08:56;;;;;;;6.45;1.40;;;15.30;60.30;;;;;;5040119;28;20029;-76
2022/06/19 06:11:23;;;;;;;4.35;1.77;;;15.50;60.70;;;;;;5035454;28;20025;-76
2022/06/19 06:13:49;;;;;;;4.70;1.23;;;15.80;61.30;;;;;;5038289;28;20061;-74
2022/06/19 06:16:18;;;;;;;2.83;1.17;;;16.10;61.70;;;;;;5033722;28;20044;-75
2022/06/19 06:18:44;;;;;;;6.53;2.50;;;16.30;62.40;;;;;;5038530;28;20111;-74
2022/06/19 06:21:17;;;;;;;6.82;1.75;;;16.60;62.10;;;;;;5037136;28;20473;-76
2022/06/19 06:23:43;;;;;;;5.82;1.27;;;16.90;62.40;;;;;;5034988;28;20115;-74
2022/06/19 06:26:11;;;;;;;4.00;1.52;;;17.10;62.20;;;;;;5035621;28;20026;-74
2022/06/19 06:28:40;;;;;;;5.35;1.20;;;17.40;62.30;;;;;;5026550;28;20053;-73
2022/06/19 06:31:07;;;;;;;3.35;1.13;;;17.50;62.10;;;;;;5026642;28;20052;-73
2022/06/19 06:33:33;;;;;;;5.30;1.25;;;17.70;62.20;;;;;;5024802;28;20032;-76
2022/06/19 06:36:00;;;;;;;5.43;1.23;;;17.90;62.30;;;;;;5033677;28;20033;-77
2022/06/19 06:38:26;;;;;;;4.53;1.33;;;18.00;62.20;;;;;;5014054;28;20041;-75
2022/06/19 06:40:53;;;;;;;5.03;1.33;;;18.10;62.10;;;;;;5029340;28;20056;-75
2022/06/19 06:43:20;;;;;;;5.07;1.30;;;18.30;62.20;;;;;;5019747;28;20173;-74
2022/06/19 06:45:48;;;;;;;6.18;1.23;;;18.40;62.00;;;;;;5017132;28;20026;-75
2022/06/19 06:48:15;;;;;;;6.43;1.80;;;18.50;61.80;;;;;;5038119;28;20076;-76
2022/06/19 06:50:42;;;;;;;5.18;1.42;;;18.60;61.60;;;;;;5025719;28;20059;-74
2022/06/19 06:53:09;;;;;;;5.68;2.13;;;18.80;61.80;;;;;;5024277;28;20478;-78
2022/06/19 06:55:39;;;;;;;7.55;2.05;;;18.80;61.60;;;;;;5036957;28;20033;-74
2022/06/19 06:58:05;;;;;;;3.72;1.90;;;18.90;61.70;;;;;;5038340;28;20044;-74
2022/06/19 07:00:31;;;;;;;6.70;1.65;;;19.00;61.70;;;;;;5035229;28;20488;-74
2022/06/19 07:02:59;;;;;;;9.05;1.73;;;19.10;61.60;;;;;;5025190;28;20033;-74
2022/06/19 07:05:26;;;;;;;7.93;1.70;;;19.30;61.60;;;;;;5028955;28;20044;-73
2022/06/19 07:07:52;;;;;;;5.43;2.20;;;19.50;61.50;;;;;;5035163;28;20037;-74
2022/06/19 07:10:19;;;;;;;6.43;2.13;;;19.60;61.50;;;;;;5034230;28;20032;-74
2022/06/19 07:12:46;;;;;;;2.50;1.10;;;19.70;61.30;;;;;;5035105;28;20033;-72
2022/06/19 07:15:12;;;;;;;6.63;1.75;;;19.90;61.20;;;;;;5037352;28;20090;-74
2022/06/19 07:17:39;;;;;;;3.72;1.02;;;20.20;61.20;;;;;;5034718;28;20916;-73
2022/06/19 07:20:06;;;;;;;5.13;1.75;;;20.60;61.00;;;;;;5034750;28;20573;-73
2022/06/19 07:22:32;;;;;;;5.60;1.80;;;21.00;60.90;;;;;;5033297;28;20025;-74
2022/06/19 07:24:58;;;;;;;4.03;1.40;;;21.30;60.60;;;;;;5038452;28;20033;-74
2022/06/19 07:27:24;;;;;;;3.00;1.20;;;21.50;60.20;;;;;;5032662;28;20036;-74
2022/06/19 07:29:50;;;;;;;4.35;1.27;;;21.80;60.10;;;;;;5031052;28;20514;-73
2022/06/19 07:32:16;;;;;;;2.72;1.17;;;22.10;60.00;;;;;;5038240;28;20036;-74
2022/06/19 07:34:43;;;;;;;4.13;1.33;;;22.40;59.50;;;;;;5034723;28;20026;-75
2022/06/19 07:37:13;;;;;;;7.90;1.50;;;22.90;58.90;;;;;;5016995;28;20417;-74
2022/06/19 07:39:40;;;;;;;6.20;2.17;;;23.40;58.40;;;;;;5030771;28;20041;-74
2022/06/19 07:42:08;;;;;;;3.78;1.20;;;23.90;57.80;;;;;;5033082;28;20068;-74
2022/06/19 07:44:39;;;;;;;3.25;1.25;;;24.30;57.10;;;;;;5030963;28;20037;-74
2022/06/19 07:50:11;;;;;;;4.00;1.25;;;25.00;56.10;;;;;;5034320;28;20025;-74
2022/06/19 07:52:38;;;;;;;4.57;1.63;;;25.60;55.00;;;;;;5033496;28;20040;-73
2022/06/19 07:55:06;;;;;;;4.97;1.70;;;26.10;53.90;;;;;;5030340;28;20029;-74
2022/06/19 07:57:33;;;;;;;7.20;2.63;;;26.20;53.10;;;;;;5017520;28;20029;-74
2022/06/19 07:59:59;;;;;;;3.15;0.90;;;26.40;52.60;;;;;;5035038;28;20203;-74
2022/06/19 08:02:25;;;;;;;4.25;1.42;;;26.90;51.70;;;;;;5030355;28;20064;-73
2022/06/19 08:04:51;;;;;;;4.03;1.15;;;27.00;51.10;;;;;;5037363;28;20057;-75
2022/06/19 08:07:18;;;;;;;3.90;1.25;;;26.80;51.10;;;;;;5035213;28;20036;-74
2022/06/19 08:09:46;;;;;;;6.30;1.30;;;26.40;51.40;;;;;;5012220;28;20120;-75
2022/06/19 08:12:12;;;;;;;3.42;0.93;;;26.10;51.90;;;;;;5027551;28;20071;-73
2022/06/19 08:14:38;;;;;;;8.35;2.40;;;25.70;52.30;;;;;;5036741;28;20040;-75
2022/06/19 08:17:04;;;;;;;5.70;1.45;;;25.40;52.70;;;;;;5017166;28;20683;-73
2022/06/19 08:19:30;;;;;;;5.55;1.85;;;25.10;52.80;;;;;;5036314;28;20037;-74
2022/06/19 08:21:56;;;;;;;5.70;1.83;;;24.80;52.80;;;;;;5036262;28;20021;-74
2022/06/19 08:24:22;;;;;;;3.60;1.10;;;24.60;52.80;;;;;;5031703;28;20188;-75
2022/06/19 08:26:54;;;;;;;2.92;0.90;;;24.50;52.80;;;;;;5029756;28;20047;-74
2022/06/19 08:29:20;;;;;;;6.45;2.47;;;24.40;52.60;;;;;;5036264;28;20021;-74
2022/06/19 08:31:47;;;;;;;3.22;1.08;;;24.30;52.50;;;;;;5011165;28;20028;-74
2022/06/19 08:34:13;;;;;;;3.58;1.42;;;24.30;52.50;;;;;;5032277;28;20029;-74
2022/06/19 08:36:39;;;;;;;4.20;1.60;;;24.20;52.30;;;;;;5031719;28;20389;-72
2022/06/19 08:39:10;;;;;;;2.95;1.20;;;24.20;52.20;;;;;;5012210;28;20045;-73
2022/06/19 08:42:13;;;;;;;4.45;1.35;;;24.20;52.10;;;;;;5027165;28;20025;-74
2022/06/19 08:44:58;;;;;;;4.60;1.38;;;24.10;51.70;;;;;;5032071;28;20102;-74
2022/06/19 08:47:58;;;;;;;4.32;1.20;;;24.10;51.90;;;;;;5029018;28;20041;-74
2022/06/19 08:50:49;;;;;;;4.20;1.23;;;24.20;52.10;;;;;;5004243;28;20036;-75
2022/06/19 08:53:36;;;;;;;2.75;0.85;;;24.30;52.30;;;;;;5015264;28;20169;-74
2022/06/19 08:56:27;;;;;;;3.45;1.08;;;24.40;51.90;;;;;;5032168;28;20043;-74
2022/06/19 08:59:17;;;;;;;2.75;1.08;;;24.70;52.80;;;;;;5031692;28;20125;-74
2022/06/19 09:01:58;;;;;;;3.63;1.55;;;24.90;52.00;;;;;;5035692;28;20493;-75
2022/06/19 09:07:58;;;;;;;3.97;1.20;;;25.40;51.50;;;;;;5018568;28;20063;-77
2022/06/19 09:10:47;;;;;;;2.63;0.98;;;25.70;51.00;;;;;;5014646;28;20448;-81
2022/06/19 09:13:26;;;;;;;3.33;1.02;;;25.90;50.90;;;;;;5033538;28;20028;-79
2022/06/19 09:16:01;;;;;;;4.05;1.33;;;26.00;50.60;;;;;;5019435;28;20033;-80
2022/06/19 09:18:44;;;;;;;4.20;1.00;;;26.10;50.50;;;;;;5022332;28;20033;-80
2022/06/19 09:21:28;;;;;;;3.42;1.13;;;26.20;50.90;;;;;;5028236;28;20033;-79
2022/06/19 09:24:00;;;;;;;2.50;0.90;;;26.30;50.10;;;;;;5034861;28;20090;-80
2022/06/19 09:26:41;;;;;;;4.77;1.03;;;26.50;50.10;;;;;;5011465;28;20156;-79
2022/06/19 09:29:12;;;;;;;6.90;2.63;;;26.50;49.90;;;;;;5035717;28;20028;-80
2022/06/19 09:31:48;;;;;;;4.68;1.35;;;26.50;49.80;;;;;;5032158;28;20103;-79
2022/06/19 09:34:30;;;;;;;6.22;2.28;;;26.40;49.60;;;;;;5033477;28;20143;-78
2022/06/19 09:37:07;;;;;;;5.50;1.77;;;26.40;49.70;;;;;;5019130;28;20032;-78
2022/06/19 09:39:49;;;;;;;6.85;1.83;;;26.20;49.70;;;;;;5025164;28;20060;-79
2022/06/19 09:42:18;;;;;;;6.10;1.93;;;26.10;49.80;;;;;;5042539;28;20029;-78
2022/06/19 09:45:18;;;;;;;3.65;1.70;;;26.00;50.10;;;;;;5024603;28;20361;-77
2022/06/19 09:47:51;;;;;;;4.90;1.92;;;25.80;49.80;;;;;;5044064;28;20301;-80
2022/06/19 09:50:34;;;;;;;3.83;1.83;;;25.70;50.10;;;;;;5039755;28;20041;-77
2022/06/19 09:53:19;;;;;;;3.10;1.08;;;25.60;50.30;;;;;;5020682;28;20024;-78
2022/06/19 09:55:49;;;;;;;2.50;1.10;;;25.50;50.30;;;;;;5034732;28;20119;-78
2022/06/19 09:58:21;;;;;;;4.15;1.50;;;25.50;50.40;;;;;;5037800;28;20029;-78
2022/06/19 10:00:50;;;;;;;6.85;1.88;;;25.50;50.40;;;;;;5039013;28;20053;-78
2022/06/19 10:03:22;;;;;;;5.30;1.55;;;25.40;51.00;;;;;;5035842;28;20432;-77
2022/06/19 10:06:09;;;;;;;4.93;1.63;;;25.40;50.30;;;;;;5010739;28;20079;-77
2022/06/19 10:08:43;;;;;;;3.33;1.50;;;25.30;50.20;;;;;;5036199;28;20473;-78
2022/06/19 10:11:18;;;;;;;3.60;1.67;;;25.20;50.30;;;;;;5019373;28;20039;-78
2022/06/19 10:14:10;;;;;;;4.95;1.58;;;25.20;50.30;;;;;;5018266;28;20021;-78
2022/06/19 10:16:51;;;;;;;4.13;0.85;;;25.10;50.30;;;;;;5016976;28;20187;-78
2022/06/19 10:19:31;;;;;;;2.78;1.08;;;25.00;50.40;;;;;;5033032;28;20025;-79
2022/06/19 10:22:16;;;;;;;2.38;0.80;;;24.90;50.40;;;;;;5022812;28;20175;-78
2022/06/19 10:25:21;;;;;;;2.17;0.85;;;24.90;50.30;;;;;;5032564;28;20318;-78
2022/06/19 10:28:22;;;;;;;3.95;1.10;;;25.00;50.50;;;;;;5036464;28;20128;-79
2022/06/19 10:30:48;;;;;;;2.05;1.10;;;25.20;50.30;;;;;;5022778;28;20041;-79
2022/06/19 10:33:29;;;;;;;4.00;1.20;;;25.40;50.00;;;;;;5018946;28;20025;-77
2022/06/19 10:36:34;;;;;;;3.78;0.93;;;25.60;49.50;;;;;;5036794;28;20158;-79
2022/06/19 10:39:06;;;;;;;3.45;1.70;;;25.80;49.20;;;;;;4999068;28;20084;-79
2022/06/19 10:42:06;;;;;;;2.92;0.60;;;26.10;49.10;;;;;;5019145;28;20150;-77
2022/06/19 10:44:44;;;;;;;1.95;1.20;;;26.20;48.70;;;;;;5036963;28;20041;-73
2022/06/19 10:47:35;;;;;;;2.75;1.13;;;26.40;48.50;;;;;;5032604;28;20049;-74
2022/06/19 10:50:24;;;;;;;2.20;0.90;;;26.40;48.20;;;;;;5037248;28;20175;-75
2022/06/19 10:53:21;;;;;;;4.10;0.90;;;26.50;48.10;;;;;;5031857;28;20038;-74
2022/06/19 10:56:15;;;;;;;3.72;1.13;;;26.50;47.90;;;;;;5023552;28;20094;-76
2022/06/19 10:58:41;;;;;;;2.08;0.88;;;26.40;47.90;;;;;;5037198;28;20041;-73
2022/06/19 11:01:09;;;;;;;2.03;0.60;;;26.30;48.70;;;;;;5037466;28;20288;-73
2022/06/19 11:06:43;;;;;;;1.88;0.93;;;26.20;48.20;;;;;;5018567;28;20472;-74
2022/06/19 11:09:17;;;;;;;2.70;1.17;;;26.10;48.10;;;;;;5035721;28;20083;-75
2022/06/19 11:11:45;;;;;;;1.13;0.60;;;26.10;48.10;;;;;;5032977;28;20431;-75
2022/06/19 11:14:26;;;;;;;1.58;0.90;;;26.20;48.20;;;;;;5032662;28;20072;-74
2022/06/19 11:16:59;;;;;;;2.20;1.00;;;26.20;48.10;;;;;;5035444;28;20720;-76
2022/06/19 11:19:47;;;;;;;1.85;0.70;;;26.30;48.20;;;;;;5034951;28;20069;-75
2022/06/19 11:22:32;;;;;;;2.60;1.10;;;26.40;47.90;;;;;;5035596;28;20087;-75
2022/06/19 11:25:21;;;;;;;5.43;0.95;;;26.50;47.90;;;;;;5024319;28;21087;-74
2022/06/19 11:27:55;;;;;;;2.40;0.90;;;26.60;47.70;;;;;;5014084;28;20609;-76
2022/06/19 11:30:48;;;;;;;2.38;1.00;;;26.60;47.70;;;;;;5035267;28;20029;-78
2022/06/19 11:33:19;;;;;;;4.15;1.17;;;26.70;47.50;;;;;;5035866;28;20025;-74
2022/06/19 11:35:53;;;;;;;2.40;1.00;;;26.80;47.60;;;;;;5035734;28;20473;-74
2022/06/19 11:38:39;;;;;;;3.65;1.50;;;26.80;47.50;;;;;;5003515;28;20033;-75
2022/06/19 11:41:29;;;;;;;8.68;1.90;;;26.90;47.70;;;;;;5033439;28;20033;-73
2022/06/19 11:44:03;;;;;;;5.88;3.10;;;27.00;47.80;;;;;;5034056;28;20036;-75
2022/06/19 11:46:30;;;;;;;6.72;2.55;;;27.00;48.00;;;;;;5030116;28;20082;-74
2022/06/19 11:49:28;;;;;;;5.40;2.00;;;27.10;48.10;;;;;;5035182;28;20519;-75
2022/06/19 11:51:57;;;;;;;4.50;1.92;;;27.20;48.00;;;;;;5036242;28;20021;-80
2022/06/19 11:54:30;;;;;;;5.03;2.45;;;27.30;48.10;;;;;;5013333;28;20400;-79
2022/06/19 11:56:56;;;;;;;2.88;1.70;;;27.30;47.90;;;;;;5002687;28;20520;-74
2022/06/19 11:59:44;;;;;;;4.95;0.85;;;27.50;47.90;;;;;;5032476;28;20412;-82
2022/06/19 12:02:31;;;;;;;2.78;0.75;;;27.70;47.30;;;;;;5033261;28;20029;-81
2022/06/19 12:05:00;;;;;;;2.17;0.90;;;28.10;45.40;;;;;;5029711;28;20063;-79
2022/06/19 12:07:30;;;;;;;2.90;0.80;;;28.00;45.00;;;;;;5019131;28;20435;-76
2022/06/19 12:10:04;;;;;;;2.60;0.80;;;27.80;44.50;;;;;;5030476;28;20403;-80
2022/06/19 12:12:35;;;;;;;5.15;1.52;;;27.50;44.20;;;;;;5034223;28;20515;-79
2022/06/19 12:15:12;;;;;;;2.47;0.70;;;27.40;44.30;;;;;;5036857;28;20458;-79
2022/06/19 12:17:44;;;;;;;3.33;1.02;;;27.40;43.70;;;;;;5034130;28;20048;-80
2022/06/19 12:20:10;;;;;;;2.03;1.02;;;27.40;43.80;;;;;;5034242;28;20037;-79
2022/06/19 12:23:01;;;;;;;3.45;0.98;;;27.40;43.50;;;;;;5018658;28;20032;-80
2022/06/19 12:25:34;;;;;;;1.73;0.60;;;27.40;43.20;;;;;;5012843;28;20400;-79
2022/06/19 12:28:31;;;;;;;3.22;0.77;;;27.30;43.30;;;;;;5025150;28;20036;-87
2022/06/19 12:31:08;;;;;;;4.57;1.13;;;27.20;43.20;;;;;;5035752;28;20029;-75
2022/06/19 12:33:55;;;;;;;3.80;0.98;;;27.30;43.60;;;;;;5031602;28;20131;-74
2022/06/19 12:36:30;;;;;;;2.72;0.70;;;27.50;43.70;;;;;;5014333;28;20029;-74
2022/06/19 12:38:56;;;;;;;1.50;0.85;;;27.80;43.60;;;;;;5032719;28;20033;-74
2022/06/19 12:41:53;;;;;;;2.70;0.60;;;28.10;43.60;;;;;;5035109;28;20037;-74
2022/06/19 12:44:38;;;;;;;4.00;0.82;;;28.30;43.30;;;;;;5033098;28;20076;-74
2022/06/19 12:47:21;;;;;;;2.67;0.70;;;28.40;43.30;;;;;;5018692;28;20033;-74
2022/06/19 12:50:01;;;;;;;2.47;0.95;;;28.40;43.10;;;;;;5030096;28;20025;-75
2022/06/19 12:53:14;;;;;;;1.98;0.50;;;28.40;43.20;;;;;;5036752;28;20075;-74
2022/06/19 12:56:05;;;;;;;4.80;1.50;;;28.30;43.70;;;;;;5036255;28;20048;-75
2022/06/19 12:58:43;;;;;;;6.15;0.90;;;28.20;43.30;;;;;;5022921;28;20033;-75
2022/06/19 13:01:25;;;;;;;8.25;0.70;;;28.10;43.60;;;;;;5034035;28;20040;-74
2022/06/19 13:04:29;;;;;;;2.55;0.80;;;28.00;43.80;;;;;;5019359;28;20533;-76
2022/06/19 13:07:09;;;;;;;3.58;0.70;;;27.80;43.80;;;;;;5015318;28;20522;-74
2022/06/19 13:09:37;;;;;;;1.35;0.80;;;27.70;44.10;;;;;;5027139;28;20032;-76
2022/06/19 13:12:15;;;;;;;1.98;0.85;;;27.60;44.30;;;;;;5016919;28;20056;-75
2022/06/19 13:14:49;;;;;;;2.72;1.40;;;27.50;44.50;;;;;;5033215;28;20032;-74
2022/06/19 13:17:17;;;;;;;4.80;0.82;;;27.40;44.60;;;;;;5018114;28;20037;-74
2022/06/19 13:20:02;;;;;;;2.72;0.95;;;27.30;44.70;;;;;;5029528;28;20052;-74
2022/06/19 13:22:31;;;;;;;2.20;0.63;;;27.30;44.70;;;;;;5034291;28;20674;-74
2022/06/19 13:25:09;;;;;;;2.45;0.93;;;27.20;44.90;;;;;;5014126;28;20094;-76
2022/06/19 13:28:07;;;;;;;1.75;0.60;;;27.20;45.00;;;;;;5030638;28;20040;-75